createdAt,value
2023-11-12T00:00:37.916Z,100342.94
2023-11-12T00:03:24.998Z,100337.40
2023-11-12T00:05:52.504Z,100334.23
2023-11-12T00:08:19.505Z,100330.53
2023-11-12T00:10:47.528Z,100334.43
2023-11-12T00:13:14.479Z,100329.02
2023-11-12T00:15:41.611Z,100330.73
2023-11-12T00:18:08.592Z,100339.20
2023-11-12T00:20:35.608Z,100349.98
2023-11-12T00:23:02.908Z,100349.27
2023-11-12T00:25:29.915Z,100337.39
2023-11-12T00:27:57.981Z,100355.03
2023-11-12T00:30:24.927Z,100363.62
2023-11-12T00:32:53.423Z,100368.52
2023-11-12T00:35:20.479Z,100368.16
2023-11-12T00:37:47.680Z,100379.77
2023-11-12T00:40:14.855Z,100386.83
2023-11-12T00:42:41.595Z,100386.84
2023-11-12T00:45:09.380Z,100393.84
2023-11-12T00:47:36.077Z,100402.44
2023-11-12T00:50:04.310Z,100395.23
2023-11-12T00:52:31.326Z,100397.14
2023-11-12T00:54:58.165Z,100397.27
2023-11-12T00:57:25.214Z,100404.40
2023-11-12T00:59:52.203Z,100413.69
2023-11-12T01:02:19.284Z,100409.23
2023-11-12T01:04:46.997Z,100414.63
2023-11-12T01:07:13.944Z,100412.67
2023-11-12T01:09:41.069Z,100409.94
2023-11-12T01:12:09.684Z,100411.36
2023-11-12T01:14:36.755Z,100411.58
2023-11-12T01:17:06.029Z,100408.04
2023-11-12T01:19:33.356Z,100411.14
2023-11-12T01:22:00.293Z,100409.96
2023-11-12T01:24:27.389Z,100397.14
2023-11-12T01:26:54.594Z,100405.88
2023-11-12T01:29:21.855Z,100408.84
2023-11-12T01:31:48.864Z,100413.10
2023-11-12T01:34:16.056Z,100419.62
2023-11-12T01:36:43.193Z,100432.55
2023-11-12T01:39:10.101Z,100441.31
2023-11-12T01:41:37.705Z,100438.21
2023-11-12T01:44:04.882Z,100436.83
2023-11-12T01:46:33.215Z,100436.20
2023-11-12T01:49:00.920Z,100438.31
2023-11-12T01:51:32.427Z,100440.05
2023-11-12T01:54:00.721Z,100434.42
2023-11-12T01:56:29.413Z,100431.80
2023-11-12T01:58:59.227Z,100429.89
2023-11-12T02:01:26.730Z,100439.59
2023-11-12T02:03:55.205Z,100447.34
2023-11-12T02:06:22.565Z,100453.20
2023-11-12T02:08:49.571Z,100446.83
2023-11-12T02:11:17.220Z,100431.57
2023-11-12T02:13:44.300Z,100442.14
2023-11-12T02:16:11.386Z,100451.13
2023-11-12T02:18:38.763Z,100450.23
2023-11-12T02:21:06.203Z,100447.83
2023-11-12T02:23:38.619Z,100465.39
2023-11-12T02:26:05.657Z,100463.52
2023-11-12T02:28:32.615Z,100466.82
2023-11-12T02:30:59.464Z,100467.91
2023-11-12T02:33:28.458Z,100465.54
2023-11-12T02:35:56.416Z,100475.45
2023-11-12T02:38:24.274Z,100488.87
2023-11-12T02:40:52.358Z,100488.54
2023-11-12T02:43:20.833Z,100491.20
2023-11-12T02:45:48.160Z,100495.10
2023-11-12T02:48:15.171Z,100495.80
2023-11-12T02:50:42.284Z,100495.41
2023-11-12T02:53:11.175Z,100488.59
2023-11-12T02:55:38.476Z,100489.10
2023-11-12T02:58:05.631Z,100488.22
2023-11-12T03:00:33.827Z,100491.83
2023-11-12T03:03:02.589Z,100484.52
2023-11-12T03:05:32.200Z,100488.13
2023-11-12T03:07:59.484Z,100483.64
2023-11-12T03:10:27.058Z,100480.21
2023-11-12T03:12:54.799Z,100476.39
2023-11-12T03:15:24.452Z,100473.59
2023-11-12T03:17:51.961Z,100463.86
2023-11-12T03:20:19.282Z,100468.58
2023-11-12T03:22:46.450Z,100463.40
2023-11-12T03:25:13.251Z,100454.56
2023-11-12T03:27:40.352Z,100448.14
2023-11-12T03:30:09.960Z,100441.33
2023-11-12T03:32:36.992Z,100448.06
2023-11-12T03:35:05.348Z,100462.61
2023-11-12T03:37:32.121Z,100471.96
2023-11-12T03:39:58.921Z,100476.13
2023-11-12T03:42:25.843Z,100493.09
2023-11-12T03:44:52.789Z,100509.92
2023-11-12T03:47:19.942Z,100521.95
2023-11-12T03:49:46.890Z,100532.24
2023-11-12T03:52:14.052Z,100537.65
2023-11-12T03:54:41.616Z,100540.55
2023-11-12T03:57:10.336Z,100552.52
2023-11-12T03:59:37.561Z,100553.95
2023-11-12T04:02:05.108Z,100552.94
2023-11-12T04:04:32.782Z,100557.84
2023-11-12T04:07:00.228Z,100562.70
2023-11-12T04:09:27.745Z,100570.13
2023-11-12T04:11:54.929Z,100575.03
2023-11-12T04:14:22.076Z,100577.33
2023-11-12T04:16:49.155Z,100572.48
2023-11-12T04:19:16.229Z,100573.54
2023-11-12T04:21:46.901Z,100581.67
2023-11-12T04:24:14.572Z,100581.34
2023-11-12T04:26:41.524Z,100578.60
2023-11-12T04:29:09.494Z,100587.13
2023-11-12T04:31:37.171Z,100586.98
2023-11-12T04:34:04.640Z,100588.72
2023-11-12T04:36:35.975Z,100593.90
2023-11-12T04:39:04.235Z,100593.92
2023-11-12T04:41:31.167Z,100595.01
2023-11-12T04:43:57.971Z,100597.80
2023-11-12T04:46:26.041Z,100595.21
2023-11-12T04:48:53.427Z,100609.75
2023-11-12T04:51:21.744Z,100605.58
2023-11-12T04:53:49.436Z,100610.46
2023-11-12T04:56:16.543Z,100617.41
2023-11-12T04:58:43.577Z,100617.75
2023-11-12T05:01:10.433Z,100621.70
2023-11-12T05:03:37.492Z,100631.71
2023-11-12T05:06:05.541Z,100639.19
2023-11-12T05:08:32.444Z,100642.52
2023-11-12T05:10:59.676Z,100647.36
2023-11-12T05:13:26.815Z,100651.36
2023-11-12T05:15:53.968Z,100653.59
2023-11-12T05:18:22.035Z,100650.59
2023-11-12T05:20:49.002Z,100666.20
2023-11-12T05:23:16.010Z,100673.32
2023-11-12T05:25:43.256Z,100669.85
2023-11-12T05:28:10.305Z,100675.02
2023-11-12T05:30:38.226Z,100684.89
2023-11-12T05:33:05.466Z,100695.27
2023-11-12T05:35:32.484Z,100695.05
2023-11-12T05:37:59.423Z,100690.67
2023-11-12T05:40:26.458Z,100699.86
2023-11-12T05:42:53.184Z,100703.64
2023-11-12T05:45:20.046Z,100707.94
2023-11-12T05:47:47.012Z,100712.09
2023-11-12T05:50:15.288Z,100707.88
2023-11-12T05:52:43.047Z,100716.83
2023-11-12T05:55:11.514Z,100717.62
2023-11-12T05:57:38.560Z,100722.95
2023-11-12T06:00:11.456Z,100723.42
2023-11-12T06:02:41.210Z,100720.05
2023-11-12T06:05:08.624Z,100723.30
2023-11-12T06:07:35.550Z,100718.20
2023-11-12T06:10:03.631Z,100720.80
2023-11-12T06:12:30.916Z,100723.66
2023-11-12T06:14:58.026Z,100732.46
2023-11-12T06:17:27.845Z,100745.02
2023-11-12T06:19:54.871Z,100740.82
2023-11-12T06:22:21.901Z,100732.50
2023-11-12T06:24:48.945Z,100748.47
2023-11-12T06:27:16.043Z,100751.30
2023-11-12T06:29:44.500Z,100759.45
2023-11-12T06:32:11.261Z,100777.99
2023-11-12T06:34:38.197Z,100776.59
2023-11-12T06:37:05.045Z,100786.23
2023-11-12T06:39:32.144Z,100789.85
2023-11-12T06:41:59.749Z,100774.14
2023-11-12T06:44:27.103Z,100782.24
2023-11-12T06:46:54.102Z,100790.06
2023-11-12T06:49:21.099Z,100789.27
2023-11-12T06:51:47.968Z,100789.95
2023-11-12T06:54:14.820Z,100788.56
2023-11-12T06:56:41.846Z,100788.39
2023-11-12T06:59:08.573Z,100784.85
2023-11-12T07:01:37.977Z,100792.52
2023-11-12T07:04:06.019Z,100803.97
2023-11-12T07:06:33.983Z,100796.09
2023-11-12T07:09:00.976Z,100800.93
2023-11-12T07:11:28.479Z,100803.86
2023-11-12T07:13:55.583Z,100799.04
2023-11-12T07:16:23.982Z,100797.79
2023-11-12T07:18:54.324Z,100796.27
2023-11-12T07:21:30.957Z,100801.48
2023-11-12T07:23:58.735Z,100808.17
2023-11-12T07:26:26.091Z,100812.03
2023-11-12T07:28:54.427Z,100802.16
2023-11-12T07:31:23.816Z,100813.42
2023-11-12T07:33:52.130Z,100811.67
2023-11-12T07:36:19.285Z,100812.58
2023-11-12T07:38:46.215Z,100812.35
2023-11-12T07:41:12.984Z,100823.44
2023-11-12T07:43:39.906Z,100827.55
2023-11-12T07:46:07.826Z,100829.23
2023-11-12T07:48:35.762Z,100814.27
2023-11-12T07:51:02.744Z,100822.73
2023-11-12T07:53:29.940Z,100827.95
2023-11-12T07:55:56.978Z,100840.00
2023-11-12T07:58:23.922Z,100838.67
2023-11-12T08:00:50.797Z,100839.52
2023-11-12T08:03:17.633Z,100846.58
2023-11-12T08:05:46.699Z,100843.34
2023-11-12T08:08:13.648Z,100847.92
2023-11-12T08:10:40.815Z,100847.27
2023-11-12T08:13:08.255Z,100856.30
2023-11-12T08:15:35.130Z,100852.13
2023-11-12T08:18:01.984Z,100867.53
2023-11-12T08:20:29.079Z,100860.89
2023-11-12T08:22:55.933Z,100870.45
2023-11-12T08:25:22.986Z,100870.27
2023-11-12T08:27:49.948Z,100877.56
2023-11-12T08:30:17.385Z,100883.02
2023-11-12T08:32:44.675Z,100882.52
2023-11-12T08:35:11.703Z,100887.55
2023-11-12T08:37:38.940Z,100873.73
2023-11-12T08:40:08.084Z,100885.27
2023-11-12T08:42:35.214Z,100886.77
2023-11-12T08:45:04.972Z,100897.91
2023-11-12T08:47:32.393Z,100898.00
2023-11-12T08:49:59.812Z,100899.83
2023-11-12T08:52:26.874Z,100904.95
2023-11-12T08:54:54.132Z,100908.08
2023-11-12T08:57:21.173Z,100914.07
2023-11-12T08:59:48.054Z,100913.17
2023-11-12T09:02:15.443Z,100911.23
2023-11-12T09:04:42.376Z,100913.38
2023-11-12T09:07:09.548Z,100919.30
2023-11-12T09:09:36.679Z,100919.52
2023-11-12T09:12:04.769Z,100921.35
2023-11-12T09:14:31.818Z,100922.10
2023-11-12T09:16:59.578Z,100920.86
2023-11-12T09:19:26.836Z,100919.27
2023-11-12T09:21:54.106Z,100918.05
2023-11-12T09:24:20.958Z,100920.86
2023-11-12T09:26:48.298Z,100915.69
2023-11-12T09:29:15.229Z,100909.73
2023-11-12T09:31:42.273Z,100904.00
2023-11-12T09:34:09.352Z,100909.30
2023-11-12T09:36:36.293Z,100911.50
2023-11-12T09:39:04.554Z,100913.34
2023-11-12T09:41:32.313Z,100908.48
2023-11-12T09:44:04.376Z,100911.89
2023-11-12T09:46:32.070Z,100914.31
2023-11-12T09:48:59.502Z,100918.69
2023-11-12T09:51:27.815Z,100912.91
2023-11-12T09:53:55.432Z,100917.67
2023-11-12T09:56:25.310Z,100916.06
2023-11-12T09:58:53.419Z,100911.21
2023-11-12T10:01:21.079Z,100916.73
2023-11-12T10:03:49.797Z,100919.61
2023-11-12T10:06:21.440Z,100911.91
2023-11-12T10:08:50.526Z,100910.67
2023-11-12T10:11:23.189Z,100913.73
2023-11-12T10:14:00.804Z,100915.95
2023-11-12T10:16:32.871Z,100916.56
2023-11-12T10:19:18.028Z,100916.16
2023-11-12T10:21:59.108Z,100926.64
2023-11-12T10:24:30.846Z,100920.39
2023-11-12T10:27:02.959Z,100927.48
2023-11-12T10:29:30.484Z,100928.14
2023-11-12T10:32:00.102Z,100936.60
2023-11-12T10:34:27.851Z,100924.77
2023-11-12T10:37:14.884Z,100933.72
2023-11-12T10:39:44.154Z,100938.44
2023-11-12T10:42:25.395Z,100932.34
2023-11-12T10:44:56.501Z,100929.05
2023-11-12T10:47:25.227Z,100935.10
2023-11-12T10:49:53.452Z,100939.98
2023-11-12T10:52:20.504Z,100943.41
2023-11-12T10:54:48.111Z,100946.34
2023-11-12T10:57:15.522Z,100943.15
2023-11-12T10:59:45.324Z,100946.60
2023-11-12T11:02:20.650Z,100948.02
2023-11-12T11:04:48.186Z,100951.91
2023-11-12T11:07:16.814Z,100948.31
2023-11-12T11:09:44.785Z,100956.62
2023-11-12T11:12:13.862Z,100967.23
2023-11-12T11:14:40.821Z,100964.58
2023-11-12T11:17:09.089Z,100954.61
2023-11-12T11:19:45.470Z,100963.34
2023-11-12T11:22:27.196Z,100962.23
2023-11-12T11:24:55.884Z,100970.90
2023-11-12T11:27:26.891Z,100974.15
2023-11-12T11:30:25.291Z,100970.82
2023-11-12T11:32:55.347Z,100964.58
2023-11-12T11:35:24.981Z,100970.27
2023-11-12T11:38:10.199Z,100975.06
2023-11-12T11:40:38.596Z,100975.36
2023-11-12T11:43:24.115Z,100980.48
2023-11-12T11:46:18.584Z,100985.79
2023-11-12T11:48:48.650Z,100987.83
2023-11-12T11:51:31.369Z,100981.46
2023-11-12T11:54:03.710Z,100992.98
2023-11-12T11:56:31.694Z,100996.71
2023-11-12T11:58:59.052Z,101006.55
2023-11-12T12:01:26.911Z,101003.89
2023-11-12T12:04:06.923Z,101001.09
2023-11-12T12:06:34.506Z,100999.92
2023-11-12T12:09:01.774Z,101005.85
2023-11-12T12:11:29.018Z,101007.48
2023-11-12T12:14:01.585Z,101006.27
2023-11-12T12:16:29.382Z,100997.77
2023-11-12T12:18:57.390Z,101001.20
2023-11-12T12:21:25.327Z,101005.70
2023-11-12T12:23:53.059Z,101000.02
2023-11-12T12:26:25.343Z,101007.56
2023-11-12T12:28:53.395Z,101001.73
2023-11-12T12:31:20.880Z,101001.00
2023-11-12T12:34:08.748Z,101006.48
2023-11-12T12:36:36.733Z,101005.73
2023-11-12T12:39:11.627Z,101003.32
2023-11-12T12:41:38.608Z,101006.58
2023-11-12T12:44:07.629Z,101018.15
2023-11-12T12:46:48.123Z,101019.98
2023-11-12T12:49:33.163Z,101020.36
2023-11-12T12:52:03.035Z,101021.36
2023-11-12T12:54:31.369Z,101024.32
2023-11-12T12:57:00.147Z,101024.17
2023-11-12T12:59:38.237Z,101028.52
2023-11-12T13:02:06.339Z,101046.48
2023-11-12T13:04:35.811Z,101048.52
2023-11-12T13:07:07.273Z,101044.14
2023-11-12T13:09:34.399Z,101049.59
2023-11-12T13:12:04.546Z,101052.71
2023-11-12T13:14:34.762Z,101055.31
2023-11-12T13:17:01.922Z,101051.45
2023-11-12T13:19:28.740Z,101056.46
2023-11-12T13:22:02.224Z,101061.90
2023-11-12T13:24:30.925Z,101063.84
2023-11-12T13:26:58.391Z,101068.07
2023-11-12T13:29:27.805Z,101079.35
2023-11-12T13:31:57.436Z,101082.39
2023-11-12T13:34:24.687Z,101079.33
2023-11-12T13:36:52.029Z,101084.20
2023-11-12T13:39:19.690Z,101094.26
2023-11-12T13:41:47.756Z,101103.08
2023-11-12T13:44:15.153Z,101105.74
2023-11-12T13:46:42.169Z,101106.21
2023-11-12T13:49:09.984Z,101112.00
2023-11-12T13:51:40.466Z,101113.73
2023-11-12T13:54:11.060Z,101115.99
2023-11-12T13:56:39.766Z,101123.71
2023-11-12T13:59:06.707Z,101127.94
2023-11-12T14:01:33.839Z,101139.16
2023-11-12T14:04:01.493Z,101147.04
2023-11-12T14:06:28.795Z,101149.91
2023-11-12T14:08:56.733Z,101151.96
2023-11-12T14:11:23.899Z,101157.52
2023-11-12T14:13:51.646Z,101167.13
2023-11-12T14:16:18.882Z,101166.32
2023-11-12T14:18:46.108Z,101171.54
2023-11-12T14:21:13.203Z,101178.14
2023-11-12T14:23:40.352Z,101186.33
2023-11-12T14:26:08.783Z,101192.39
2023-11-12T14:28:36.304Z,101204.48
2023-11-12T14:31:07.484Z,101204.92
2023-11-12T14:33:35.297Z,101196.39
2023-11-12T14:36:02.663Z,101200.19
2023-11-12T14:38:30.010Z,101206.57
2023-11-12T14:40:56.952Z,101212.76
2023-11-12T14:43:24.098Z,101210.06
2023-11-12T14:45:51.284Z,101214.94
2023-11-12T14:48:20.035Z,101221.56
2023-11-12T14:50:48.015Z,101227.30
2023-11-12T14:53:16.389Z,101232.50
2023-11-12T14:55:43.251Z,101238.19
2023-11-12T14:58:10.526Z,101240.72
2023-11-12T15:00:37.535Z,101247.80
2023-11-12T15:03:07.946Z,101247.39
2023-11-12T15:05:36.073Z,101247.85
2023-11-12T15:08:04.102Z,101255.09
2023-11-12T15:10:31.041Z,101263.01
2023-11-12T15:12:58.110Z,101264.27
2023-11-12T15:15:25.362Z,101270.41
2023-11-12T15:17:52.538Z,101279.39
2023-11-12T15:20:19.545Z,101282.09
2023-11-12T15:22:47.205Z,101283.90
2023-11-12T15:25:14.726Z,101291.60
2023-11-12T15:27:46.168Z,101296.35
2023-11-12T15:30:14.662Z,101298.31
2023-11-12T15:32:43.261Z,101302.57
2023-11-12T15:35:13.998Z,101305.92
2023-11-12T15:37:41.270Z,101306.67
2023-11-12T15:40:14.973Z,101310.21
2023-11-12T15:42:44.019Z,101318.83
2023-11-12T15:45:12.481Z,101324.79
2023-11-12T15:47:40.413Z,101328.13
2023-11-12T15:50:13.020Z,101331.48
2023-11-12T15:52:40.962Z,101331.16
2023-11-12T15:55:09.361Z,101329.62
2023-11-12T15:57:37.738Z,101330.84
2023-11-12T16:00:13.478Z,101327.56
2023-11-12T16:02:41.562Z,101330.73
2023-11-12T16:05:10.443Z,101337.71
2023-11-12T16:07:40.043Z,101337.73
2023-11-12T16:10:09.392Z,101337.73
2023-11-12T16:12:37.334Z,101340.37
2023-11-12T16:15:07.540Z,101347.52
2023-11-12T16:17:34.407Z,101351.90
2023-11-12T16:20:01.545Z,101352.96
2023-11-12T16:22:28.692Z,101359.25
2023-11-12T16:24:55.689Z,101365.73
2023-11-12T16:27:22.688Z,101369.75
2023-11-12T16:29:49.726Z,101373.61
2023-11-12T16:32:20.503Z,101377.09
2023-11-12T16:34:47.283Z,101380.42
2023-11-12T16:37:15.162Z,101384.09
2023-11-12T16:39:47.001Z,101384.95
2023-11-12T16:42:20.511Z,101385.28
2023-11-12T16:44:47.578Z,101391.55
2023-11-12T16:47:17.110Z,101396.79
2023-11-12T16:49:45.963Z,101399.39
2023-11-12T16:52:13.419Z,101405.50
2023-11-12T16:54:40.394Z,101413.16
2023-11-12T16:57:10.479Z,101415.27
2023-11-12T16:59:41.725Z,101417.54
2023-11-12T17:02:10.949Z,101421.02
2023-11-12T17:04:38.994Z,101419.98
2023-11-12T17:07:11.195Z,101426.42
2023-11-12T17:09:39.272Z,101429.22
2023-11-12T17:12:07.018Z,101436.01
2023-11-12T17:14:34.265Z,101440.70
2023-11-12T17:17:01.091Z,101443.31
2023-11-12T17:19:28.664Z,101449.92
2023-11-12T17:21:57.266Z,101449.74
2023-11-12T17:24:24.407Z,101451.83
2023-11-12T17:26:51.799Z,101445.75
2023-11-12T17:29:20.760Z,101442.79
2023-11-12T17:31:51.380Z,101443.48
2023-11-12T17:34:19.549Z,101443.98
2023-11-12T17:36:48.993Z,101447.63
2023-11-12T17:39:22.096Z,101450.91
2023-11-12T17:41:50.733Z,101455.73
2023-11-12T17:44:17.977Z,101460.41
2023-11-12T17:46:45.318Z,101472.36
2023-11-12T17:49:12.876Z,101474.94
2023-11-12T17:51:40.905Z,101478.55
2023-11-12T17:54:07.918Z,101480.93
2023-11-12T17:56:37.626Z,101488.17
2023-11-12T17:59:05.811Z,101488.22
2023-11-12T18:01:33.065Z,101492.63
2023-11-12T18:04:02.735Z,101496.30
2023-11-12T18:06:29.910Z,101498.73
2023-11-12T18:08:56.687Z,101499.42
2023-11-12T18:11:23.972Z,101496.52
2023-11-12T18:13:50.871Z,101495.02
2023-11-12T18:16:20.624Z,101494.05
2023-11-12T18:18:48.130Z,101498.83
2023-11-12T18:21:15.883Z,101499.30
2023-11-12T18:23:43.404Z,101497.72
2023-11-12T18:26:12.027Z,101501.58
2023-11-12T18:28:39.100Z,101507.35
2023-11-12T18:31:06.660Z,101510.89
2023-11-12T18:33:35.748Z,101512.00
2023-11-12T18:36:02.778Z,101514.13
2023-11-12T18:38:29.639Z,101514.33
2023-11-12T18:40:56.777Z,101518.31
2023-11-12T18:43:25.356Z,101523.09
2023-11-12T18:45:56.632Z,101530.05
2023-11-12T18:48:24.568Z,101536.13
2023-11-12T18:50:52.221Z,101541.30
2023-11-12T18:53:21.943Z,101548.48
2023-11-12T18:55:51.654Z,101551.55
2023-11-12T18:58:18.513Z,101551.67
2023-11-12T19:00:45.927Z,101553.52
2023-11-12T19:03:13.422Z,101556.95
2023-11-12T19:05:41.686Z,101561.08
2023-11-12T19:08:13.865Z,101565.02
2023-11-12T19:10:40.900Z,101565.71
2023-11-12T19:13:09.023Z,101564.33
2023-11-12T19:15:39.510Z,101571.97
2023-11-12T19:18:06.620Z,101570.95
2023-11-12T19:20:40.666Z,101572.86
2023-11-12T19:23:07.714Z,101575.48
2023-11-12T19:25:40.387Z,101574.84
2023-11-12T19:28:07.210Z,101578.36
2023-11-12T19:30:35.144Z,101582.71
2023-11-12T19:33:02.754Z,101592.20
2023-11-12T19:35:29.824Z,101599.98
2023-11-12T19:37:59.819Z,101605.53
2023-11-12T19:40:26.705Z,101611.48
2023-11-12T19:42:54.173Z,101616.77
2023-11-12T19:45:21.483Z,101615.11
2023-11-12T19:47:54.686Z,101613.59
2023-11-12T19:50:24.326Z,101620.52
2023-11-12T19:52:51.432Z,101630.77
2023-11-12T19:55:19.625Z,101634.42
2023-11-12T19:57:46.590Z,101640.25
2023-11-12T20:00:14.305Z,101640.88
2023-11-12T20:02:41.320Z,101635.30
2023-11-12T20:05:08.990Z,101632.31
2023-11-12T20:07:36.237Z,101634.54
2023-11-12T20:10:04.692Z,101630.09
2023-11-12T20:12:31.596Z,101631.88
2023-11-12T20:15:02.030Z,101631.70
2023-11-12T20:17:29.518Z,101630.45
2023-11-12T20:19:56.634Z,101630.92
2023-11-12T20:22:23.580Z,101624.80
2023-11-12T20:24:51.006Z,101620.58
2023-11-12T20:27:19.420Z,101617.05
2023-11-12T20:29:47.408Z,101612.31
2023-11-12T20:32:15.804Z,101610.80
2023-11-12T20:34:45.168Z,101608.73
2023-11-12T20:37:14.257Z,101611.35
2023-11-12T20:39:41.347Z,101611.50
2023-11-12T20:42:11.230Z,101611.30
2023-11-12T20:44:41.476Z,101609.01
2023-11-12T20:47:11.727Z,101608.91
2023-11-12T20:49:43.529Z,101612.63
2023-11-12T20:52:10.522Z,101611.66
2023-11-12T20:54:40.448Z,101622.72
2023-11-12T20:57:07.713Z,101631.06
2023-11-12T20:59:34.875Z,101637.25
2023-11-12T21:02:10.256Z,101641.20
2023-11-12T21:04:45.607Z,101644.13
2023-11-12T21:07:13.351Z,101642.27
2023-11-12T21:09:40.299Z,101639.76
2023-11-12T21:12:08.569Z,101641.85
2023-11-12T21:14:35.725Z,101638.90
2023-11-12T21:17:02.844Z,101637.48
2023-11-12T21:19:29.918Z,101635.03
2023-11-12T21:21:56.777Z,101635.02
2023-11-12T21:24:23.702Z,101633.48
2023-11-12T21:26:50.916Z,101635.55
2023-11-12T21:29:18.527Z,101631.45
2023-11-12T21:31:46.541Z,101626.23
2023-11-12T21:34:14.641Z,101624.52
2023-11-12T21:36:42.091Z,101628.80
2023-11-12T21:39:11.117Z,101626.27
2023-11-12T21:41:39.179Z,101631.30
2023-11-12T21:44:09.205Z,101635.77
2023-11-12T21:46:36.373Z,101638.16
2023-11-12T21:49:05.340Z,101640.38
2023-11-12T21:51:33.012Z,101639.48
2023-11-12T21:53:59.843Z,101637.75
2023-11-12T21:56:28.428Z,101635.15
2023-11-12T21:58:55.275Z,101635.48
2023-11-12T22:01:24.955Z,101632.88
2023-11-12T22:03:52.080Z,101632.91
2023-11-12T22:06:19.688Z,101635.74
2023-11-12T22:08:46.523Z,101633.18
2023-11-12T22:11:13.473Z,101630.95
2023-11-12T22:13:41.039Z,101625.98
2023-11-12T22:16:09.469Z,101624.99
2023-11-12T22:18:36.575Z,101629.02
2023-11-12T22:21:05.052Z,101629.40
2023-11-12T22:23:32.002Z,101628.92
2023-11-12T22:25:58.999Z,101628.60
2023-11-12T22:28:25.905Z,101627.92
2023-11-12T22:30:53.093Z,101628.48
2023-11-12T22:33:20.078Z,101629.19
2023-11-12T22:35:47.847Z,101627.51
2023-11-12T22:38:14.796Z,101625.30
2023-11-12T22:40:42.562Z,101627.05
2023-11-12T22:43:09.623Z,101630.86
2023-11-12T22:45:37.574Z,101633.98
2023-11-12T22:48:05.500Z,101631.59
2023-11-12T22:50:32.828Z,101636.13
2023-11-12T22:52:59.845Z,101635.11
2023-11-12T22:55:26.748Z,101633.77
2023-11-12T22:57:53.788Z,101634.14
2023-11-12T23:00:40.600Z,101634.20
2023-11-12T23:03:15.820Z,101632.46
2023-11-12T23:05:52.154Z,101634.13
2023-11-12T23:08:20.332Z,101637.02
2023-11-12T23:10:49.015Z,101645.42
2023-11-12T23:13:18.136Z,101645.54
2023-11-12T23:15:45.717Z,101647.02
2023-11-12T23:18:13.592Z,101646.75
2023-11-12T23:20:40.703Z,101640.77
2023-11-12T23:23:08.857Z,101644.47
2023-11-12T23:25:35.814Z,101646.09
2023-11-12T23:28:03.430Z,101644.95
2023-11-12T23:30:31.179Z,101647.73
2023-11-12T23:32:58.016Z,101645.65
2023-11-12T23:35:26.754Z,101653.81
2023-11-12T23:37:54.068Z,101654.66
2023-11-12T23:40:21.085Z,101656.05
2023-11-12T23:42:48.185Z,101653.48
2023-11-12T23:45:15.408Z,101652.34
2023-11-12T23:47:42.410Z,101659.68
2023-11-12T23:50:10.678Z,101660.14
2023-11-12T23:52:37.830Z,101660.40
2023-11-12T23:55:06.009Z,101665.45
2023-11-12T23:57:34.595Z,101665.51
